Time;durP1;ratioP1;P1;durP2;ratioP2;P2;SDS_P1;SDS_P2;PMS_P1;PMS_P2;Temp;Humidity;BMP_temperature;BMP_pressure;BME280_temperature;BME280_humidity;BME280_pressure;Samples;Min_cycle;Max_cycle;Signal;HPM_P1;HPM_P2
2022/03/23 00:01:39;;;;;;;;;;;5.80;97.20;;;;;;5101767;28;20358;-43
2022/03/23 00:04:05;;;;;;;;;;;5.80;97.40;;;;;;5087118;28;19908;-44
2022/03/23 00:06:31;;;;;;;;;;;5.80;97.80;;;;;;5094190;28;19908;-42
2022/03/23 00:08:57;;;;;;;;;;;5.80;99.00;;;;;;5081831;28;19977;-43
2022/03/23 00:11:24;;;;;;;;;;;5.80;99.00;;;;;;5090030;28;20006;-44
2022/03/23 00:13:50;;;;;;;;;;;5.70;98.80;;;;;;5085162;28;19938;-42
2022/03/23 00:16:15;;;;;;;;;;;5.60;98.20;;;;;;5089820;28;19913;-44
2022/03/23 00:18:41;;;;;;;;;;;5.60;99.90;;;;;;5081926;28;19931;-43
2022/03/23 00:21:06;;;;;;;;;;;5.50;98.30;;;;;;5081653;28;19908;-43
2022/03/23 00:23:32;;;;;;;;;;;5.60;99.90;;;;;;5088932;28;19912;-43
2022/03/23 00:25:59;;;;;;;;;;;5.50;98.10;;;;;;5074934;28;19915;-43
2022/03/23 00:28:27;;;;;;;;;;;5.50;99.10;;;;;;5081568;28;20339;-43
2022/03/23 00:30:53;;;;;;;;;;;5.60;99.90;;;;;;5081225;28;19967;-45
2022/03/23 00:33:21;;;;;;;;;;;5.60;99.90;;;;;;5093421;28;19946;-43
2022/03/23 00:35:47;;;;;;;;;;;5.60;99.90;;;;;;5083884;28;20030;-43
2022/03/23 00:38:13;;;;;;;;;;;5.60;99.90;;;;;;5092912;28;20206;-45
2022/03/23 00:40:39;;;;;;;;;;;5.50;99.90;;;;;;5094922;28;19908;-43
2022/03/23 00:43:04;;;;;;;;;;;5.50;99.90;;;;;;5093164;28;19927;-42
2022/03/23 00:45:30;;;;;;;;;;;5.40;99.90;;;;;;5093075;28;19908;-43
2022/03/23 00:47:56;;;;;;;;;;;5.40;99.90;;;;;;5087492;28;20262;-43
2022/03/23 00:50:22;;;;;;;;;;;5.40;99.90;;;;;;5092408;28;19919;-44
2022/03/23 00:52:47;;;;;;;;;;;5.50;99.90;;;;;;5091705;28;19912;-44
2022/03/23 00:55:14;;;;;;;;;;;5.50;99.90;;;;;;5075805;28;19912;-42
2022/03/23 00:57:39;;;;;;;;;;;5.40;99.90;;;;;;5090985;28;20346;-43
2022/03/23 01:00:06;;;;;;;;;;;5.30;99.90;;;;;;5075827;28;19909;-44
2022/03/23 01:02:34;;;;;;;;;;;5.30;99.90;;;;;;5091835;28;19904;-44
2022/03/23 01:05:00;;;;;;;;;;;5.30;99.90;;;;;;5079507;28;20389;-44
2022/03/23 01:07:25;;;;;;;;;;;5.30;99.90;;;;;;5075595;28;19912;-42
2022/03/23 01:09:51;;;;;;;;;;;5.30;99.90;;;;;;5074499;28;19955;-43
2022/03/23 01:12:16;;;;;;;;;;;5.40;99.90;;;;;;5092368;28;19934;-43
2022/03/23 01:14:42;;;;;;;;;;;5.30;99.90;;;;;;5089777;28;19930;-44
2022/03/23 01:17:08;;;;;;;;;;;5.30;99.90;;;;;;5091876;28;19908;-44
2022/03/23 01:19:33;;;;;;;;;;;5.30;99.90;;;;;;5077184;28;19908;-45
2022/03/23 01:21:59;;;;;;;;;;;5.30;99.90;;;;;;5091808;28;20270;-42
2022/03/23 01:24:24;;;;;;;;;;;5.10;99.90;;;;;;5074386;28;19908;-42
2022/03/23 01:26:50;;;;;;;;;;;5.20;99.90;;;;;;5075340;28;19920;-42
2022/03/23 01:29:16;;;;;;;;;;;5.10;99.90;;;;;;5074169;28;20270;-44
2022/03/23 01:31:41;;;;;;;;;;;5.10;99.90;;;;;;5087070;28;20002;-46
2022/03/23 01:34:07;;;;;;;;;;;5.20;99.90;;;;;;5091285;28;19916;-43
2022/03/23 01:36:33;;;;;;;;;;;5.20;99.90;;;;;;5082795;28;19912;-44
2022/03/23 01:38:59;;;;;;;;;;;5.10;99.90;;;;;;5085577;28;20410;-42
2022/03/23 01:41:25;;;;;;;;;;;5.10;99.90;;;;;;5073819;28;19944;-42
2022/03/23 01:43:50;;;;;;;;;;;5.00;99.90;;;;;;5075114;28;20405;-42
2022/03/23 01:46:17;;;;;;;;;;;5.00;99.90;;;;;;5077739;28;19908;-42
2022/03/23 01:48:43;;;;;;;;;;;5.00;99.90;;;;;;5089000;28;19935;-42
2022/03/23 01:51:09;;;;;;;;;;;4.90;99.90;;;;;;5093589;28;20366;-43
2022/03/23 01:53:35;;;;;;;;;;;4.90;99.90;;;;;;5079571;28;19919;-43
2022/03/23 01:56:00;;;;;;;;;;;4.90;99.90;;;;;;5088558;28;20262;-44
2022/03/23 01:58:26;;;;;;;;;;;4.90;99.90;;;;;;5075290;28;19912;-43
2022/03/23 02:00:51;;;;;;;;;;;4.80;99.90;;;;;;5130267;27;20350;-43
2022/03/23 02:03:17;;;;;;;;;;;4.70;99.90;;;;;;5098484;28;19985;-44
2022/03/23 02:05:43;;;;;;;;;;;4.80;99.90;;;;;;5086731;28;19958;-47
2022/03/23 02:08:10;;;;;;;;;;;4.80;99.90;;;;;;5091607;28;20355;-46
2022/03/23 02:10:35;;;;;;;;;;;4.80;99.90;;;;;;5086886;28;19999;-42
2022/03/23 02:13:01;;;;;;;;;;;4.80;99.90;;;;;;5083510;28;20018;-43
2022/03/23 02:15:28;;;;;;;;;;;4.80;99.90;;;;;;5080909;28;19919;-43
2022/03/23 02:17:54;;;;;;;;;;;4.80;99.90;;;;;;5085437;28;19931;-43
2022/03/23 02:20:20;;;;;;;;;;;4.70;99.90;;;;;;5089965;28;19909;-43
2022/03/23 02:22:46;;;;;;;;;;;4.70;99.90;;;;;;5083350;28;19962;-42
2022/03/23 02:25:12;;;;;;;;;;;4.70;99.90;;;;;;5086408;28;20312;-44
2022/03/23 02:27:38;;;;;;;;;;;4.60;99.90;;;;;;5093631;28;19904;-45
2022/03/23 02:30:09;;;;;;;;;;;4.60;99.90;;;;;;5080561;28;19988;-45
2022/03/23 02:32:35;;;;;;;;;;;4.60;99.90;;;;;;5073631;28;20350;-46
2022/03/23 02:35:01;;;;;;;;;;;4.60;99.90;;;;;;5090995;28;19978;-44
2022/03/23 02:37:26;;;;;;;;;;;4.50;99.90;;;;;;5093339;28;19911;-44
2022/03/23 02:39:52;;;;;;;;;;;4.40;99.90;;;;;;5076791;28;20362;-42
2022/03/23 02:42:17;;;;;;;;;;;4.40;99.90;;;;;;5075481;28;20030;-42
2022/03/23 02:44:43;;;;;;;;;;;4.40;99.90;;;;;;5079083;28;19940;-43
2022/03/23 02:47:09;;;;;;;;;;;4.30;99.90;;;;;;5077012;28;19908;-45
2022/03/23 02:49:34;;;;;;;;;;;4.30;99.90;;;;;;5080162;28;19970;-44
2022/03/23 02:52:00;;;;;;;;;;;4.30;99.90;;;;;;5077092;28;20256;-44
2022/03/23 03:03:07;;;;;;;;;;;4.10;99.90;;;;;;5091579;28;20018;-44
2022/03/23 03:05:33;;;;;;;;;;;4.10;99.90;;;;;;5083244;28;19943;-46
2022/03/23 03:10:42;;;;;;;;;;;4.00;99.90;;;;;;5117384;28;20368;-44
2022/03/23 03:13:08;;;;;;;;;;;4.00;99.90;;;;;;5096935;28;20007;-43
2022/03/23 03:15:34;;;;;;;;;;;4.00;99.90;;;;;;5076917;28;19943;-45
2022/03/23 03:18:00;;;;;;;;;;;4.00;99.90;;;;;;5077513;28;19904;-45
2022/03/23 03:20:26;;;;;;;;;;;4.00;99.90;;;;;;5084569;28;19912;-43
2022/03/23 03:22:53;;;;;;;;;;;4.00;99.90;;;;;;5093159;28;19931;-44
2022/03/23 03:25:20;;;;;;;;;;;4.10;99.90;;;;;;5083244;28;19908;-44
2022/03/23 03:27:46;;;;;;;;;;;4.10;99.90;;;;;;5095591;28;19926;-44
2022/03/23 03:30:13;;;;;;;;;;;4.10;99.90;;;;;;5095992;28;19919;-42
2022/03/23 03:32:39;;;;;;;;;;;4.00;99.90;;;;;;5077415;28;19912;-43
2022/03/23 03:35:05;;;;;;;;;;;4.00;99.90;;;;;;5090343;28;20000;-43
2022/03/23 03:37:31;;;;;;;;;;;4.00;99.90;;;;;;5078707;28;20309;-42
2022/03/23 03:39:56;;;;;;;;;;;4.00;99.90;;;;;;5090576;28;19908;-42
2022/03/23 03:42:22;;;;;;;;;;;4.00;99.90;;;;;;5076711;28;19931;-43
2022/03/23 03:44:50;;;;;;;;;;;4.00;99.90;;;;;;5091208;28;20267;-42
2022/03/23 03:47:16;;;;;;;;;;;3.90;99.90;;;;;;5109641;27;19939;-42
2022/03/23 03:49:42;;;;;;;;;;;3.80;99.90;;;;;;5082765;28;20055;-43
2022/03/23 03:52:07;;;;;;;;;;;3.70;99.90;;;;;;5079053;28;20258;-42
2022/03/23 03:54:33;;;;;;;;;;;3.80;99.90;;;;;;5075710;28;19912;-43
2022/03/23 03:56:58;;;;;;;;;;;3.80;99.90;;;;;;5089341;28;19908;-42
2022/03/23 03:59:24;;;;;;;;;;;3.70;99.90;;;;;;5080616;28;19915;-42
2022/03/23 04:01:50;;;;;;;;;;;3.70;99.90;;;;;;5093414;28;19908;-41
2022/03/23 04:04:15;;;;;;;;;;;3.70;99.90;;;;;;5083862;28;19935;-41
2022/03/23 04:06:41;;;;;;;;;;;3.60;99.90;;;;;;5078955;28;19962;-41
2022/03/23 04:09:06;;;;;;;;;;;3.70;99.90;;;;;;5083353;28;19953;-41
2022/03/23 04:11:32;;;;;;;;;;;3.70;99.90;;;;;;5095568;28;19915;-44
2022/03/23 04:13:58;;;;;;;;;;;3.60;99.90;;;;;;5093517;28;19912;-44
2022/03/23 04:16:23;;;;;;;;;;;3.70;99.90;;;;;;5094513;28;20407;-44
2022/03/23 04:18:49;;;;;;;;;;;3.70;99.90;;;;;;5084206;28;19962;-43
2022/03/23 04:21:15;;;;;;;;;;;3.80;99.90;;;;;;5076523;28;19934;-43
2022/03/23 04:23:40;;;;;;;;;;;3.70;99.90;;;;;;5079596;28;19950;-44
2022/03/23 04:26:06;;;;;;;;;;;3.60;99.90;;;;;;5095611;28;19949;-43
2022/03/23 04:28:31;;;;;;;;;;;3.50;99.90;;;;;;5093484;28;20003;-43
2022/03/23 04:30:57;;;;;;;;;;;3.50;99.90;;;;;;5093641;28;20002;-43
2022/03/23 04:33:22;;;;;;;;;;;3.50;99.90;;;;;;5091843;28;19957;-43
2022/03/23 04:35:48;;;;;;;;;;;3.60;99.90;;;;;;5083655;28;19919;-43
2022/03/23 04:38:13;;;;;;;;;;;3.70;99.90;;;;;;5083464;28;19908;-44
2022/03/23 04:40:39;;;;;;;;;;;3.50;99.90;;;;;;5086542;28;19905;-42
2022/03/23 04:43:05;;;;;;;;;;;3.60;99.90;;;;;;5078717;28;19987;-43
2022/03/23 04:45:31;;;;;;;;;;;3.50;99.90;;;;;;5093891;28;19908;-43
2022/03/23 04:47:56;;;;;;;;;;;3.60;99.90;;;;;;5089796;28;20007;-43
2022/03/23 04:50:22;;;;;;;;;;;3.60;99.90;;;;;;5075763;28;19919;-46
2022/03/23 04:52:48;;;;;;;;;;;3.50;99.90;;;;;;5083239;28;20006;-42
2022/03/23 04:55:14;;;;;;;;;;;3.50;99.90;;;;;;5085065;28;19954;-43
2022/03/23 04:57:40;;;;;;;;;;;3.50;99.90;;;;;;5075605;28;19909;-42
2022/03/23 05:00:10;;;;;;;;;;;3.60;99.90;;;;;;5094292;28;20304;-43
2022/03/23 05:02:39;;;;;;;;;;;3.50;99.90;;;;;;5093135;28;19915;-43
2022/03/23 05:05:06;;;;;;;;;;;3.50;99.90;;;;;;5084754;28;19908;-43
2022/03/23 05:07:31;;;;;;;;;;;3.50;99.90;;;;;;5078252;28;20023;-43
2022/03/23 05:09:57;;;;;;;;;;;3.60;99.90;;;;;;5094365;28;19949;-43
2022/03/23 05:12:22;;;;;;;;;;;3.60;99.90;;;;;;5099029;28;19927;-44
2022/03/23 05:14:48;;;;;;;;;;;3.50;99.90;;;;;;5114527;28;19907;-44
2022/03/23 05:17:13;;;;;;;;;;;3.50;99.90;;;;;;5114565;28;19918;-43
2022/03/23 05:19:39;;;;;;;;;;;3.50;99.90;;;;;;5095633;28;19908;-42
2022/03/23 05:22:05;;;;;;;;;;;3.60;99.90;;;;;;5089797;28;19927;-44
2022/03/23 05:24:30;;;;;;;;;;;3.70;99.90;;;;;;5097489;28;19907;-43
2022/03/23 05:26:56;;;;;;;;;;;3.70;99.90;;;;;;5114240;28;19953;-43
2022/03/23 05:29:22;;;;;;;;;;;3.70;99.90;;;;;;5104609;28;19908;-44
2022/03/23 05:31:47;;;;;;;;;;;3.80;99.90;;;;;;5093973;28;19920;-44
2022/03/23 05:34:15;;;;;;;;;;;3.80;99.90;;;;;;5092964;28;21609;-43
2022/03/23 05:36:40;;;;;;;;;;;3.90;99.90;;;;;;5094191;28;19912;-44
2022/03/23 05:39:06;;;;;;;;;;;3.90;99.90;;;;;;5089120;28;20371;-44
2022/03/23 05:41:32;;;;;;;;;;;4.20;99.90;;;;;;5093030;28;19913;-45
2022/03/23 05:43:57;;;;;;;;;;;4.10;99.90;;;;;;5089313;28;19915;-42
2022/03/23 05:46:23;;;;;;;;;;;4.10;99.90;;;;;;5093618;28;20270;-44
2022/03/23 05:48:48;;;;;;;;;;;4.10;99.90;;;;;;5087634;28;20355;-42
2022/03/23 05:51:14;;;;;;;;;;;4.20;99.90;;;;;;5082187;28;19938;-44
2022/03/23 05:53:40;;;;;;;;;;;4.20;99.90;;;;;;5092304;28;20370;-42
2022/03/23 05:56:07;;;;;;;;;;;4.20;99.90;;;;;;5092918;28;19946;-43
2022/03/23 05:58:34;;;;;;;;;;;4.30;99.90;;;;;;5092004;28;19912;-45
2022/03/23 06:01:00;;;;;;;;;;;4.30;99.90;;;;;;5088209;28;19966;-45
2022/03/23 06:03:25;;;;;;;;;;;4.30;99.90;;;;;;5093116;28;20298;-42
2022/03/23 06:05:51;;;;;;;;;;;4.50;99.90;;;;;;5092791;28;19998;-45
2022/03/23 06:08:17;;;;;;;;;;;4.60;99.90;;;;;;5093294;28;20362;-47
2022/03/23 06:10:42;;;;;;;;;;;4.70;99.90;;;;;;5092429;28;19954;-44
2022/03/23 06:13:09;;;;;;;;;;;4.90;99.90;;;;;;5087617;28;19940;-43
2022/03/23 06:15:34;;;;;;;;;;;5.00;99.90;;;;;;5092020;28;20372;-47
2022/03/23 06:18:00;;;;;;;;;;;5.10;99.90;;;;;;5095544;28;19904;-44
2022/03/23 06:20:26;;;;;;;;;;;5.20;99.90;;;;;;5096351;28;19908;-46
2022/03/23 06:22:51;;;;;;;;;;;5.40;99.90;;;;;;5098459;28;20349;-43
2022/03/23 06:25:17;;;;;;;;;;;5.50;99.90;;;;;;5116330;28;20245;-46
2022/03/23 06:27:42;;;;;;;;;;;5.60;99.90;;;;;;5116457;28;19912;-44
2022/03/23 06:30:08;;;;;;;;;;;5.70;99.90;;;;;;5116785;28;19923;-44
2022/03/23 06:32:34;;;;;;;;;;;5.80;99.90;;;;;;5117527;28;19916;-43
2022/03/23 06:35:00;;;;;;;;;;;5.90;99.90;;;;;;5117256;28;19904;-42
2022/03/23 06:37:26;;;;;;;;;;;6.10;99.90;;;;;;5116480;28;20292;-46
2022/03/23 06:39:52;;;;;;;;;;;6.20;99.90;;;;;;5116989;28;20414;-43
2022/03/23 06:42:17;;;;;;;;;;;6.30;99.90;;;;;;5110144;28;19944;-44
2022/03/23 06:44:43;;;;;;;;;;;6.40;99.90;;;;;;5094011;28;19912;-43
2022/03/23 06:47:09;;;;;;;;;;;6.50;99.90;;;;;;5095726;28;19908;-46
2022/03/23 06:49:34;;;;;;;;;;;6.60;99.90;;;;;;5095555;28;20380;-47
2022/03/23 06:52:00;;;;;;;;;;;6.80;99.90;;;;;;5092411;28;19959;-45
2022/03/23 06:54:25;;;;;;;;;;;6.90;99.90;;;;;;5093840;28;20050;-44
2022/03/23 06:56:51;;;;;;;;;;;7.00;99.90;;;;;;5094332;28;19939;-47
2022/03/23 06:59:18;;;;;;;;;;;7.00;99.90;;;;;;5089379;28;19920;-45
2022/03/23 07:01:43;;;;;;;;;;;7.20;99.90;;;;;;5092226;28;20395;-47
2022/03/23 07:04:08;;;;;;;;;;;7.30;99.90;;;;;;5095170;28;19947;-45
2022/03/23 07:06:34;;;;;;;;;;;7.50;99.90;;;;;;5078568;28;20025;-47
2022/03/23 07:11:44;;;;;;;;;;;7.90;99.90;;;;;;5086034;28;19915;-46
2022/03/23 07:14:09;;;;;;;;;;;8.00;99.90;;;;;;5103950;28;19920;-46
2022/03/23 07:16:35;;;;;;;;;;;8.10;99.90;;;;;;5104767;28;19994;-46
2022/03/23 07:19:00;;;;;;;;;;;8.20;99.90;;;;;;5075960;28;19912;-46
2022/03/23 07:21:26;;;;;;;;;;;8.30;99.90;;;;;;5083619;28;19924;-46
2022/03/23 07:23:51;;;;;;;;;;;8.50;99.90;;;;;;5093114;28;19912;-43
2022/03/23 07:26:18;;;;;;;;;;;8.60;99.90;;;;;;5095729;28;19908;-44
2022/03/23 07:28:44;;;;;;;;;;;8.80;99.90;;;;;;5094422;28;19912;-44
2022/03/23 07:31:09;;;;;;;;;;;8.90;99.30;;;;;;5095630;28;19920;-44
2022/03/23 07:33:35;;;;;;;;;;;9.10;98.30;;;;;;5095432;28;20416;-43
2022/03/23 07:36:02;;;;;;;;;;;9.20;98.10;;;;;;5095448;28;20313;-44
2022/03/23 07:38:27;;;;;;;;;;;9.20;99.90;;;;;;5094918;28;20340;-47
2022/03/23 07:40:53;;;;;;;;;;;9.50;99.90;;;;;;5095182;28;19908;-44
2022/03/23 07:43:18;;;;;;;;;;;9.40;97.00;;;;;;5095052;28;19961;-44
2022/03/23 07:45:44;;;;;;;;;;;9.70;99.90;;;;;;5095723;28;19908;-45
2022/03/23 07:48:10;;;;;;;;;;;9.90;98.70;;;;;;5095354;28;20004;-42
2022/03/23 07:50:35;;;;;;;;;;;10.00;97.10;;;;;;5095349;28;19915;-43
2022/03/23 07:53:01;;;;;;;;;;;10.10;96.50;;;;;;5094914;28;20394;-44
2022/03/23 07:55:26;;;;;;;;;;;9.90;95.30;;;;;;5095523;28;19908;-44
2022/03/23 07:57:52;;;;;;;;;;;9.90;93.20;;;;;;5095316;28;20324;-44
2022/03/23 08:00:17;;;;;;;;;;;10.10;94.10;;;;;;5095509;28;20305;-49
2022/03/23 08:02:44;;;;;;;;;;;9.80;93.10;;;;;;5094979;28;19908;-47
2022/03/23 08:05:09;;;;;;;;;;;10.10;94.80;;;;;;5095459;28;19961;-44
2022/03/23 08:07:35;;;;;;;;;;;10.30;95.80;;;;;;5094929;28;19916;-45
2022/03/23 08:10:00;;;;;;;;;;;10.20;91.70;;;;;;5095332;28;19993;-44
2022/03/23 08:12:26;;;;;;;;;;;10.40;93.90;;;;;;5095048;28;20015;-47
2022/03/23 08:14:52;;;;;;;;;;;10.60;93.10;;;;;;5094825;28;19919;-43
2022/03/23 08:17:17;;;;;;;;;;;10.70;91.90;;;;;;5094780;28;19908;-44
2022/03/23 08:19:43;;;;;;;;;;;10.50;91.50;;;;;;5094682;28;19908;-46
2022/03/23 08:22:09;;;;;;;;;;;10.50;91.60;;;;;;5094641;28;19943;-46
2022/03/23 08:24:34;;;;;;;;;;;10.50;92.40;;;;;;5094656;28;20301;-44
2022/03/23 08:27:00;;;;;;;;;;;10.80;94.00;;;;;;5094598;28;19908;-46
2022/03/23 08:29:25;;;;;;;;;;;10.90;92.30;;;;;;5095244;28;20006;-44
2022/03/23 08:31:52;;;;;;;;;;;11.10;93.30;;;;;;5093447;28;19927;-47
2022/03/23 08:34:18;;;;;;;;;;;11.30;91.10;;;;;;5093601;28;20374;-45
2022/03/23 08:36:43;;;;;;;;;;;11.30;90.70;;;;;;5094621;28;19908;-43
2022/03/23 08:39:09;;;;;;;;;;;11.40;89.40;;;;;;5094000;28;19958;-43
2022/03/23 08:41:34;;;;;;;;;;;11.50;92.00;;;;;;5094618;28;20006;-43
2022/03/23 08:44:00;;;;;;;;;;;11.50;91.50;;;;;;5094480;28;19969;-45
2022/03/23 08:46:27;;;;;;;;;;;11.60;90.10;;;;;;5094396;28;19912;-44
2022/03/23 08:48:53;;;;;;;;;;;11.80;90.50;;;;;;5093795;28;20410;-44
2022/03/23 08:51:19;;;;;;;;;;;11.80;87.80;;;;;;5094573;28;19951;-45
2022/03/23 08:53:45;;;;;;;;;;;11.60;88.70;;;;;;5094277;28;20324;-45
2022/03/23 08:56:13;;;;;;;;;;;11.90;89.10;;;;;;5092945;28;19913;-45
2022/03/23 08:58:39;;;;;;;;;;;12.00;89.60;;;;;;5094144;28;19912;-43
2022/03/23 09:01:05;;;;;;;;;;;12.10;88.00;;;;;;5094046;28;19916;-45
2022/03/23 09:03:31;;;;;;;;;;;12.10;90.00;;;;;;5092980;28;20278;-43
2022/03/23 09:05:57;;;;;;;;;;;12.50;88.00;;;;;;5093902;28;19920;-43
2022/03/23 09:08:23;;;;;;;;;;;12.50;88.30;;;;;;5093818;28;19913;-45
2022/03/23 09:10:48;;;;;;;;;;;12.80;92.80;;;;;;5094387;28;20317;-44
2022/03/23 09:13:14;;;;;;;;;;;13.10;91.10;;;;;;5092894;28;19920;-43
2022/03/23 09:15:39;;;;;;;;;;;13.20;84.70;;;;;;5093915;28;19909;-44
2022/03/23 09:18:06;;;;;;;;;;;13.00;81.30;;;;;;5093992;28;19934;-45
2022/03/23 09:20:32;;;;;;;;;;;13.10;85.40;;;;;;5093838;28;19998;-45
2022/03/23 09:22:58;;;;;;;;;;;13.30;82.80;;;;;;5094040;28;19969;-46
2022/03/23 09:25:24;;;;;;;;;;;13.30;81.50;;;;;;5093401;28;20420;-45
2022/03/23 09:27:50;;;;;;;;;;;13.30;82.60;;;;;;5093646;28;19915;-43
2022/03/23 09:30:15;;;;;;;;;;;13.40;83.10;;;;;;5093438;28;19983;-45
2022/03/23 09:32:42;;;;;;;;;;;13.60;79.60;;;;;;5093883;28;19955;-43
2022/03/23 09:35:08;;;;;;;;;;;13.50;81.20;;;;;;5093602;28;19912;-45
2022/03/23 09:37:48;;;;;;;;;;;13.70;80.80;;;;;;5093725;28;19908;-44
2022/03/23 09:40:15;;;;;;;;;;;13.80;80.50;;;;;;5093417;28;19915;-44
2022/03/23 09:42:41;;;;;;;;;;;13.80;77.00;;;;;;5093536;28;19950;-44
2022/03/23 09:45:07;;;;;;;;;;;13.80;75.90;;;;;;5092827;28;19915;-43
2022/03/23 09:47:33;;;;;;;;;;;13.80;76.90;;;;;;5092997;28;19926;-45
2022/03/23 09:49:58;;;;;;;;;;;13.60;78.30;;;;;;5092961;28;19914;-45
2022/03/23 09:52:24;;;;;;;;;;;13.60;76.70;;;;;;5092941;28;19912;-43
2022/03/23 09:54:50;;;;;;;;;;;13.50;79.60;;;;;;5093716;28;20266;-45
2022/03/23 09:57:15;;;;;;;;;;;13.90;78.10;;;;;;5092845;28;19909;-43
2022/03/23 09:59:41;;;;;;;;;;;14.20;76.20;;;;;;5093062;28;19916;-49
2022/03/23 10:02:12;;;;;;;;;;;14.50;84.00;;;;;;5092186;28;19915;-46
2022/03/23 10:04:50;;;;;;;;;;;14.80;77.40;;;;;;5093008;28;20397;-46
2022/03/23 10:07:19;;;;;;;;;;;14.90;75.20;;;;;;5093152;28;19915;-44
2022/03/23 10:09:47;;;;;;;;;;;14.70;74.60;;;;;;5093219;28;19915;-47
2022/03/23 10:12:32;;;;;;;;;;;14.70;73.70;;;;;;5092720;28;19912;-45
2022/03/23 10:15:16;;;;;;;;;;;14.50;75.00;;;;;;5091529;28;19908;-45
2022/03/23 10:17:44;;;;;;;;;;;14.70;73.10;;;;;;5092809;28;20013;-44
2022/03/23 10:20:13;;;;;;;;;;;15.00;76.20;;;;;;5092179;28;19908;-44
2022/03/23 10:22:45;;;;;;;;;;;14.90;71.90;;;;;;5092817;28;19919;-45
2022/03/23 10:25:12;;;;;;;;;;;14.50;71.50;;;;;;5091834;28;19930;-49
2022/03/23 10:27:38;;;;;;;;;;;14.90;72.80;;;;;;5091733;28;20381;-46
2022/03/23 10:30:04;;;;;;;;;;;14.90;72.70;;;;;;5092416;28;20018;-46
2022/03/23 10:32:37;;;;;;;;;;;15.30;79.60;;;;;;5092725;28;19939;-43
2022/03/23 10:35:04;;;;;;;;;;;15.30;72.90;;;;;;5092552;28;19987;-45
2022/03/23 10:37:31;;;;;;;;;;;15.50;71.90;;;;;;5093046;28;19919;-45
2022/03/23 10:39:57;;;;;;;;;;;15.50;70.90;;;;;;5093619;28;19908;-46
2022/03/23 10:42:24;;;;;;;;;;;15.40;69.90;;;;;;5093026;28;20243;-45
2022/03/23 10:44:50;;;;;;;;;;;15.40;69.70;;;;;;5092422;28;19908;-45
2022/03/23 10:47:27;;;;;;;;;;;15.40;69.20;;;;;;5092858;28;19954;-45
2022/03/23 10:49:52;;;;;;;;;;;15.70;69.30;;;;;;5092664;28;19919;-43
2022/03/23 10:52:18;;;;;;;;;;;16.00;70.90;;;;;;5092652;28;20327;-45
2022/03/23 10:54:53;;;;;;;;;;;16.10;67.50;;;;;;5092594;28;19977;-47
2022/03/23 10:57:19;;;;;;;;;;;16.00;67.00;;;;;;5092834;28;19908;-44
2022/03/23 10:59:45;;;;;;;;;;;15.80;67.00;;;;;;5092286;28;19931;-43
2022/03/23 11:02:10;;;;;;;;;;;16.10;67.70;;;;;;5092617;28;19931;-45
2022/03/23 11:04:45;;;;;;;;;;;16.00;65.70;;;;;;5095354;28;20312;-46
2022/03/23 11:07:23;;;;;;;;;;;15.90;65.00;;;;;;5094644;28;20025;-47
2022/03/23 11:18:11;;;;;;;;;;;16.50;68.00;;;;;;5095828;28;19915;-45
2022/03/23 11:20:39;;;;;;;;;;;16.60;63.70;;;;;;5095867;28;19912;-47
2022/03/23 11:23:15;;;;;;;;;;;16.60;63.70;;;;;;5096115;28;19920;-43
2022/03/23 11:25:40;;;;;;;;;;;16.70;64.30;;;;;;5096132;28;19997;-47
2022/03/23 11:28:06;;;;;;;;;;;16.80;63.80;;;;;;5095494;28;19935;-44
2022/03/23 11:30:32;;;;;;;;;;;16.90;62.20;;;;;;5095864;28;19942;-47
2022/03/23 11:32:57;;;;;;;;;;;16.60;62.20;;;;;;5096236;28;20347;-45
2022/03/23 11:35:23;;;;;;;;;;;16.60;62.60;;;;;;5096046;28;19915;-47
2022/03/23 11:37:48;;;;;;;;;;;16.60;62.30;;;;;;5095944;28;20349;-46
2022/03/23 11:40:14;;;;;;;;;;;16.80;62.20;;;;;;5095400;28;20312;-45
2022/03/23 11:42:40;;;;;;;;;;;16.40;61.50;;;;;;5095282;28;19912;-46
2022/03/23 11:45:06;;;;;;;;;;;16.30;62.10;;;;;;5095074;28;20010;-47
2022/03/23 11:47:42;;;;;;;;;;;16.50;64.20;;;;;;5095626;28;19915;-45
2022/03/23 11:50:17;;;;;;;;;;;17.00;62.00;;;;;;5095333;28;19908;-45
2022/03/23 11:52:43;;;;;;;;;;;17.00;60.10;;;;;;5095228;28;20357;-44
2022/03/23 11:55:40;;;;;;;;;;;17.10;59.10;;;;;;5095824;28;19951;-44
2022/03/23 11:58:05;;;;;;;;;;;17.00;58.90;;;;;;5095183;28;19999;-47
2022/03/23 12:00:39;;;;;;;;;;;17.10;59.50;;;;;;5095064;28;19985;-47
2022/03/23 12:03:05;;;;;;;;;;;16.90;58.60;;;;;;5095345;28;19915;-46
2022/03/23 12:05:35;;;;;;;;;;;16.80;58.40;;;;;;5095122;28;19912;-47
2022/03/23 12:08:00;;;;;;;;;;;17.00;60.40;;;;;;5093763;28;19912;-47
2022/03/23 12:10:28;;;;;;;;;;;17.30;59.30;;;;;;5094884;28;19908;-45
2022/03/23 12:12:54;;;;;;;;;;;17.40;59.40;;;;;;5095400;28;19927;-46
2022/03/23 12:15:21;;;;;;;;;;;17.30;58.20;;;;;;5094581;28;19908;-46
2022/03/23 12:17:55;;;;;;;;;;;17.30;59.50;;;;;;5094865;28;20331;-44
2022/03/23 12:20:28;;;;;;;;;;;17.50;59.80;;;;;;5095077;28;19908;-47
2022/03/23 12:23:12;;;;;;;;;;;17.80;58.40;;;;;;5094761;28;19916;-46
2022/03/23 12:25:57;;;;;;;;;;;17.70;58.20;;;;;;5094015;28;19908;-46
2022/03/23 12:28:43;;;;;;;;;;;17.20;57.80;;;;;;5094515;28;19938;-45
2022/03/23 12:31:10;;;;;;;;;;;17.40;58.20;;;;;;5094108;28;20365;-46
2022/03/23 12:33:55;;;;;;;;;;;17.80;60.00;;;;;;5094132;28;20222;-45
2022/03/23 12:36:26;;;;;;;;;;;17.80;56.90;;;;;;5094718;28;19979;-46
2022/03/23 12:38:58;;;;;;;;;;;17.40;55.70;;;;;;5094705;28;19915;-46
2022/03/23 12:41:39;;;;;;;;;;;17.50;56.50;;;;;;5094321;28;19954;-45
2022/03/23 12:44:09;;;;;;;;;;;17.50;59.10;;;;;;5094183;28;19908;-47
2022/03/23 12:46:42;;;;;;;;;;;17.70;56.90;;;;;;5094276;28;20252;-47
2022/03/23 12:57:49;;;;;;;;;;;18.20;54.60;;;;;;5094401;28;20085;-44
2022/03/23 13:00:29;;;;;;;;;;;18.30;54.30;;;;;;5094464;28;19931;-45
2022/03/23 13:03:15;;;;;;;;;;;18.40;55.00;;;;;;5094229;28;19908;-48
2022/03/23 13:05:59;;;;;;;;;;;18.10;53.50;;;;;;5082474;28;19908;-42
2022/03/23 13:08:27;;;;;;;;;;;17.90;53.50;;;;;;5093602;28;19976;-45
2022/03/23 13:10:54;;;;;;;;;;;17.90;54.00;;;;;;5092543;28;19912;-48
2022/03/23 13:13:20;;;;;;;;;;;18.00;54.60;;;;;;5093859;28;20353;-47
2022/03/23 13:15:46;;;;;;;;;;;18.10;53.90;;;;;;5093013;28;19908;-44
2022/03/23 13:18:11;;;;;;;;;;;18.30;53.60;;;;;;5093944;28;19977;-46
2022/03/23 13:20:37;;;;;;;;;;;18.30;54.70;;;;;;5093628;28;19951;-45
2022/03/23 13:23:10;;;;;;;;;;;18.50;54.40;;;;;;5093630;28;19942;-46
2022/03/23 13:25:36;;;;;;;;;;;18.30;54.00;;;;;;5093484;28;20343;-46
2022/03/23 13:28:10;;;;;;;;;;;17.90;54.60;;;;;;5093374;28;19919;-47
2022/03/23 13:30:35;;;;;;;;;;;17.90;54.40;;;;;;5093180;28;19924;-50
2022/03/23 13:33:01;;;;;;;;;;;18.00;54.90;;;;;;5093346;28;19922;-49
2022/03/23 13:35:26;;;;;;;;;;;17.90;53.40;;;;;;5093145;28;19977;-45
2022/03/23 13:37:58;;;;;;;;;;;17.90;54.20;;;;;;5092869;28;20397;-46
2022/03/23 13:40:24;;;;;;;;;;;18.10;53.30;;;;;;5092863;28;19908;-46
2022/03/23 13:45:35;;;;;;;;;;;17.80;52.60;;;;;;5092848;28;19966;-44
2022/03/23 13:48:05;;;;;;;;;;;17.80;52.90;;;;;;5092514;28;19912;-45
2022/03/23 13:50:31;;;;;;;;;;;18.00;53.10;;;;;;5091398;28;19923;-48
2022/03/23 13:52:56;;;;;;;;;;;18.20;55.20;;;;;;5092325;28;19920;-47
2022/03/23 13:55:24;;;;;;;;;;;18.10;53.80;;;;;;5093315;28;19965;-46
2022/03/23 13:57:50;;;;;;;;;;;18.30;52.90;;;;;;5093086;28;20002;-45
2022/03/23 14:00:23;;;;;;;;;;;18.30;51.90;;;;;;5092958;28;19976;-49
2022/03/23 14:02:50;;;;;;;;;;;18.40;56.30;;;;;;5092510;28;19912;-49
2022/03/23 14:05:16;;;;;;;;;;;18.40;51.90;;;;;;5092199;28;19919;-46
2022/03/23 14:07:43;;;;;;;;;;;18.50;53.00;;;;;;5092853;28;20373;-47
2022/03/23 14:10:10;;;;;;;;;;;18.70;52.90;;;;;;5091819;28;19912;-44
2022/03/23 14:12:36;;;;;;;;;;;18.80;51.50;;;;;;5092766;28;20350;-48
2022/03/23 14:15:01;;;;;;;;;;;18.60;51.20;;;;;;5092822;28;19928;-45
2022/03/23 14:17:30;;;;;;;;;;;18.70;51.30;;;;;;5092557;28;19938;-47
2022/03/23 14:19:57;;;;;;;;;;;18.30;50.80;;;;;;5092053;28;19919;-47
2022/03/23 14:22:24;;;;;;;;;;;18.20;51.10;;;;;;5092796;28;20007;-50
2022/03/23 14:24:51;;;;;;;;;;;18.30;51.40;;;;;;5092361;28;19920;-47
2022/03/23 14:27:27;;;;;;;;;;;18.30;50.90;;;;;;5092602;28;19915;-46
2022/03/23 14:29:59;;;;;;;;;;;18.10;50.50;;;;;;5090746;28;20062;-45
2022/03/23 14:32:28;;;;;;;;;;;18.00;51.10;;;;;;5092764;28;20006;-45
2022/03/23 14:34:54;;;;;;;;;;;18.00;51.70;;;;;;5093061;28;19973;-46
2022/03/23 14:37:19;;;;;;;;;;;18.00;50.90;;;;;;5092578;28;19913;-48
2022/03/23 14:39:46;;;;;;;;;;;17.90;49.80;;;;;;5096316;28;19912;-52
2022/03/23 14:42:13;;;;;;;;;;;17.90;50.30;;;;;;5097342;28;19912;-49
2022/03/23 14:44:39;;;;;;;;;;;18.00;50.60;;;;;;5096314;28;19994;-48
2022/03/23 14:47:09;;;;;;;;;;;18.00;50.20;;;;;;5096316;28;19912;-47
2022/03/23 14:49:52;;;;;;;;;;;17.90;50.00;;;;;;5096099;28;19969;-48
2022/03/23 14:52:18;;;;;;;;;;;17.70;49.60;;;;;;5096433;28;19916;-45
2022/03/23 14:54:43;;;;;;;;;;;17.90;52.40;;;;;;5096682;28;19912;-48
2022/03/23 14:57:09;;;;;;;;;;;17.90;49.70;;;;;;5095534;28;19925;-46